Time;durP1;ratioP1;P1;durP2;ratioP2;P2;SDS_P1;SDS_P2;PMS_P1;PMS_P2;Temp;Humidity;BMP_temperature;BMP_pressure;BME280_temperature;BME280_humidity;BME280_pressure;Samples;Min_cycle;Max_cycle;Signal;HPM_P1;HPM_P2
2022/10/25 00:00:38;;;;;;;14.52;3.10;;;;;;;12.92;100.00;100985.66;5048616;28;20214;-71
2022/10/25 00:03:09;;;;;;;15.25;2.83;;;;;;;12.92;100.00;100979.38;5069193;28;20028;-68
2022/10/25 00:05:35;;;;;;;11.15;2.90;;;;;;;12.90;100.00;100990.50;5076590;28;20479;-69
2022/10/25 00:08:00;;;;;;;10.57;2.42;;;;;;;12.92;100.00;100990.25;5076293;28;20024;-71
2022/10/25 00:10:26;;;;;;;13.30;3.28;;;;;;;12.93;100.00;101000.88;5076543;28;20039;-69
2022/10/25 00:12:51;;;;;;;16.23;2.83;;;;;;;12.96;100.00;101002.31;5074058;28;20029;-71
2022/10/25 00:15:16;;;;;;;14.40;3.17;;;;;;;12.96;100.00;100993.34;5072135;28;20029;-72
2022/10/25 00:17:42;;;;;;;12.10;2.72;;;;;;;12.98;100.00;100996.63;5056114;28;20461;-70
2022/10/25 00:20:09;;;;;;;16.20;3.20;;;;;;;12.98;100.00;100996.63;5055754;28;20115;-68
2022/10/25 00:22:34;;;;;;;10.85;3.05;;;;;;;13.01;100.00;100996.97;5067514;28;20115;-69
2022/10/25 00:24:59;;;;;;;13.82;2.92;;;;;;;13.04;100.00;100995.69;5075952;28;20112;-69
2022/10/25 00:27:24;;;;;;;15.32;2.90;;;;;;;13.05;100.00;100997.34;5075936;28;20037;-73
2022/10/25 00:29:51;;;;;;;14.38;3.15;;;;;;;13.09;100.00;101006.69;5076461;28;20055;-70
2022/10/25 00:32:17;;;;;;;14.85;2.70;;;;;;;13.09;100.00;101004.78;5065477;28;20037;-69
2022/10/25 00:34:42;;;;;;;16.05;3.28;;;;;;;13.07;100.00;101006.06;5068720;28;20379;-68
2022/10/25 00:37:07;;;;;;;14.27;2.65;;;;;;;13.06;100.00;101002.53;5075784;28;20081;-72
2022/10/25 00:39:33;;;;;;;12.38;2.47;;;;;;;13.09;100.00;101012.09;5071047;28;20071;-71
2022/10/25 00:41:58;;;;;;;13.93;2.70;;;;;;;13.09;100.00;101006.69;5074951;28;20039;-70
2022/10/25 00:44:39;;;;;;;11.15;2.78;;;;;;;13.13;100.00;101007.81;5075504;28;20029;-70
2022/10/25 00:47:20;;;;;;;17.40;2.88;;;;;;;13.15;100.00;101010.31;5075568;28;20048;-71
2022/10/25 00:49:48;;;;;;;;;;;;;;;13.20;100.00;101008.53;5076262;28;20111;-70
2022/10/25 00:52:14;;;;;;;12.68;3.20;;;;;;;13.13;100.00;101013.25;5066285;28;19916;-71
2022/10/25 00:54:47;;;;;;;12.45;2.97;;;;;;;13.16;100.00;101007.34;5055705;28;20029;-68
2022/10/25 00:57:23;;;;;;;15.07;2.85;;;;;;;13.16;100.00;101009.25;5054907;28;20052;-71
2022/10/25 00:59:49;;;;;;;11.10;2.58;;;;;;;13.14;100.00;101009.50;5054329;28;20025;-70
2022/10/25 01:02:16;;;;;;;10.32;2.65;;;;;;;13.11;100.00;100999.91;5059499;28;20028;-69
2022/10/25 01:04:42;;;;;;;14.00;2.50;;;;;;;13.12;100.00;101017.06;5075519;28;20028;-70
2022/10/25 01:07:08;;;;;;;14.45;3.40;;;;;;;13.14;100.00;101012.22;5090919;28;20056;-72
2022/10/25 01:09:36;;;;;;;10.82;2.28;;;;;;;13.12;100.00;101015.16;5075498;28;20427;-72
2022/10/25 01:12:02;;;;;;;10.80;2.17;;;;;;;13.13;100.00;101015.97;5074064;28;20028;-70
2022/10/25 01:14:28;;;;;;;9.27;2.28;;;;;;;13.13;100.00;101024.13;5073899;28;20024;-69
2022/10/25 01:17:08;;;;;;;11.30;2.40;;;;;;;13.12;100.00;101022.50;5057341;28;20054;-70
2022/10/25 01:20:02;;;;;;;13.63;2.78;;;;;;;13.08;100.00;101027.56;5053567;28;20036;-71
2022/10/25 01:22:46;;;;;;;12.23;2.33;;;;;;;13.07;100.00;101030.50;5064219;28;20067;-68
2022/10/25 01:25:30;;;;;;;12.80;2.80;;;;;;;13.06;100.00;101026.97;5074856;28;20254;-70
2022/10/25 01:28:01;;;;;;;16.92;2.60;;;;;;;13.05;100.00;101038.09;5069131;28;20067;-68
2022/10/25 01:30:53;;;;;;;8.73;2.58;;;;;;;13.11;100.00;101031.72;5054794;28;20033;-72
2022/10/25 01:33:29;;;;;;;15.23;2.75;;;;;;;13.10;100.00;101040.91;5070014;28;20460;-71
2022/10/25 01:36:11;;;;;;;13.60;2.78;;;;;;;13.07;100.00;101041.38;5074633;28;20471;-72
2022/10/25 01:38:49;;;;;;;11.25;2.40;;;;;;;13.08;100.00;101040.31;5060861;28;20394;-71
2022/10/25 01:41:24;;;;;;;9.10;2.17;;;;;;;13.06;100.00;101039.75;5072256;28;20042;-70
2022/10/25 01:44:02;;;;;;;12.70;2.35;;;;;;;13.07;100.00;101042.22;5053822;28;20029;-69
2022/10/25 01:46:51;;;;;;;12.20;3.03;;;;;;;13.10;100.00;101038.19;5053551;28;20031;-70
2022/10/25 01:49:33;;;;;;;13.32;2.47;;;;;;;13.07;100.00;101035.94;5054147;28;20067;-71
2022/10/25 01:51:58;;;;;;;13.10;2.30;;;;;;;13.08;100.00;101034.91;5053983;28;20032;-70
2022/10/25 01:54:25;;;;;;;13.30;2.55;;;;;;;13.06;100.00;101046.00;5054354;28;20052;-69
2022/10/25 01:57:00;;;;;;;11.88;2.53;;;;;;;13.05;100.00;101047.06;5054306;28;20053;-69
2022/10/25 01:59:48;;;;;;;14.38;2.78;;;;;;;13.08;100.00;101049.28;5053741;28;20055;-71
2022/10/25 02:02:43;;;;;;;12.40;2.22;;;;;;;13.06;100.00;101050.63;5051141;28;20029;-70
2022/10/25 02:05:24;;;;;;;17.30;2.53;;;;;;;13.04;100.00;101047.28;5064985;28;20025;-72
2022/10/25 02:08:05;;;;;;;14.43;3.08;;;;;;;13.03;100.00;101051.06;5074399;28;20107;-69
2022/10/25 02:10:43;;;;;;;11.05;2.63;;;;;;;13.01;100.00;101047.75;5074309;28;20024;-69
2022/10/25 02:13:35;;;;;;;19.15;2.90;;;;;;;13.02;100.00;101054.88;5059026;28;20033;-69
2022/10/25 02:16:21;;;;;;;12.32;2.60;;;;;;;13.02;100.00;101058.41;5054529;28;20053;-71
2022/10/25 02:18:50;;;;;;;12.57;2.20;;;;;;;12.97;100.00;101054.72;5054124;28;20025;-69
2022/10/25 02:21:17;;;;;;;13.82;3.00;;;;;;;12.94;100.00;101054.16;5052340;28;20045;-72
2022/10/25 02:23:43;;;;;;;9.13;2.60;;;;;;;12.92;100.00;101055.44;5071820;28;20067;-71
2022/10/25 02:26:10;;;;;;;13.93;2.47;;;;;;;12.92;100.00;101056.28;5071873;28;20103;-70
2022/10/25 02:28:39;;;;;;;11.13;3.00;;;;;;;12.91;100.00;101054.63;5073882;28;20055;-71
2022/10/25 02:31:11;;;;;;;13.82;2.63;;;;;;;12.91;100.00;101053.81;5071862;28;20025;-69
2022/10/25 02:33:37;;;;;;;9.13;2.63;;;;;;;12.88;100.00;101057.00;5071655;28;20039;-72
2022/10/25 02:36:05;;;;;;;12.23;2.80;;;;;;;12.87;100.00;101053.44;5072520;28;20071;-72
2022/10/25 02:38:32;;;;;;;12.00;2.78;;;;;;;12.84;100.00;101056.63;5073518;28;20056;-73
2022/10/25 02:40:59;;;;;;;10.35;2.60;;;;;;;12.85;100.00;101061.00;5072340;28;20020;-70
2022/10/25 02:43:24;;;;;;;13.27;2.70;;;;;;;12.86;100.00;101062.66;5068909;28;20429;-70
2022/10/25 02:45:49;;;;;;;13.55;2.70;;;;;;;12.82;100.00;101061.47;5053579;28;20058;-72
2022/10/25 02:48:14;;;;;;;13.82;2.83;;;;;;;12.80;100.00;101069.00;5051951;28;20029;-72
2022/10/25 02:50:40;;;;;;;10.48;2.47;;;;;;;12.82;100.00;101064.19;5053505;28;20025;-71
2022/10/25 02:53:05;;;;;;;12.25;2.63;;;;;;;12.83;100.00;101070.44;5065367;28;20032;-72
2022/10/25 02:55:30;;;;;;;15.45;3.10;;;;;;;12.80;100.00;101069.00;5073116;28;20526;-68
2022/10/25 02:57:57;;;;;;;9.82;2.50;;;;;;;12.79;100.00;101070.09;5073438;28;20043;-70
2022/10/25 03:00:22;;;;;;;15.10;2.80;;;;;;;12.79;100.00;101067.38;5071642;28;20089;-71
2022/10/25 03:02:48;;;;;;;11.40;2.53;;;;;;;12.82;100.00;101071.47;5061299;28;20337;-71
2022/10/25 03:05:13;;;;;;;10.48;2.65;;;;;;;12.77;100.00;101081.19;5052892;28;20407;-72
2022/10/25 03:07:38;;;;;;;11.30;2.90;;;;;;;12.78;100.00;101071.13;5053687;28;20036;-68
2022/10/25 03:10:04;;;;;;;8.77;2.38;;;;;;;12.76;100.00;101079.50;5053500;28;20529;-68
2022/10/25 03:12:29;;;;;;;12.07;2.40;;;;;;;12.74;100.00;101080.81;5052074;28;20196;-73
2022/10/25 03:14:54;;;;;;;12.25;2.88;;;;;;;12.73;100.00;101085.41;5052994;28;20036;-69
2022/10/25 03:17:20;;;;;;;14.85;3.47;;;;;;;12.75;100.00;101085.19;5052690;28;20472;-69
2022/10/25 03:19:45;;;;;;;9.10;2.42;;;;;;;12.73;100.00;101087.31;5064600;28;20028;-69
2022/10/25 03:22:10;;;;;;;8.93;2.30;;;;;;;12.71;100.00;101092.13;5067056;28;20044;-68
2022/10/25 03:24:36;;;;;;;10.48;2.58;;;;;;;12.68;100.00;101101.59;5052843;28;20055;-69
2022/10/25 03:27:01;;;;;;;9.98;2.53;;;;;;;12.67;100.00;101096.41;5052917;28;20341;-68
2022/10/25 03:29:26;;;;;;;8.88;2.35;;;;;;;12.64;100.00;101097.69;5052283;28;20025;-68
2022/10/25 03:31:51;;;;;;;8.75;2.58;;;;;;;12.62;100.00;101102.53;5052532;28;20107;-70
2022/10/25 03:34:17;;;;;;;10.57;2.42;;;;;;;12.63;100.00;101106.06;5053139;28;20055;-71
2022/10/25 03:36:42;;;;;;;9.10;2.30;;;;;;;12.59;100.00;101106.53;5072612;28;20020;-72
2022/10/25 03:39:07;;;;;;;8.88;2.28;;;;;;;12.59;100.00;101113.81;5071773;28;20021;-71
2022/10/25 03:41:32;;;;;;;9.85;2.20;;;;;;;12.58;100.00;101118.44;5051400;28;20368;-69
2022/10/25 03:43:58;;;;;;;14.35;2.75;;;;;;;12.56;100.00;101126.00;5056032;28;20025;-68
2022/10/25 03:46:23;;;;;;;8.38;2.40;;;;;;;12.56;100.00;101122.44;5051071;28;20035;-70
2022/10/25 03:48:48;;;;;;;11.43;2.72;;;;;;;12.55;100.00;101118.91;5052586;28;20414;-68
2022/10/25 03:51:13;;;;;;;8.52;2.00;;;;;;;12.53;100.00;101121.03;5053224;28;20033;-68
2022/10/25 03:53:39;;;;;;;12.05;2.53;;;;;;;12.52;100.00;101124.78;5052072;28;20410;-71
2022/10/25 03:56:04;;;;;;;10.07;2.72;;;;;;;12.52;100.00;101126.69;5052149;28;20021;-71
2022/10/25 03:58:30;;;;;;;11.15;2.60;;;;;;;12.53;100.00;101131.88;5050907;28;20478;-71
2022/10/25 04:00:56;;;;;;;12.20;2.72;;;;;;;12.52;100.00;101132.13;5049732;28;20025;-69
2022/10/25 04:03:21;;;;;;;6.75;2.53;;;;;;;12.52;100.00;101135.66;5065191;28;20032;-71
2022/10/25 04:05:46;;;;;;;8.05;2.30;;;;;;;12.52;100.00;101145.69;5072504;28;20141;-68
2022/10/25 04:08:12;;;;;;;10.45;2.63;;;;;;;12.51;100.00;101146.75;5072415;28;20039;-71
2022/10/25 04:10:37;;;;;;;7.80;2.50;;;;;;;12.51;100.00;101144.03;5071960;28;20475;-71
2022/10/25 04:13:02;;;;;;;13.50;2.50;;;;;;;12.52;100.00;101134.84;5058010;28;20028;-70
2022/10/25 04:15:28;;;;;;;15.10;3.05;;;;;;;12.48;100.00;101129.00;5052126;28;20506;-68
2022/10/25 04:17:53;;;;;;;12.10;2.70;;;;;;;12.50;100.00;101140.50;5052310;28;20025;-69
2022/10/25 04:20:20;;;;;;;7.35;2.40;;;;;;;12.48;100.00;101131.72;5051779;28;20361;-68
2022/10/25 04:22:52;;;;;;;10.05;2.75;;;;;;;12.48;100.00;101144.47;5058741;28;20368;-68
2022/10/25 04:25:17;;;;;;;12.75;3.17;;;;;;;12.45;100.00;101143.03;5070654;28;20031;-70
2022/10/25 04:27:42;;;;;;;9.23;2.30;;;;;;;12.46;100.00;101147.44;5072216;28;20025;-69
2022/10/25 04:30:08;;;;;;;10.40;2.90;;;;;;;12.43;100.00;101150.59;5061277;28;20029;-70
2022/10/25 04:32:33;;;;;;;13.60;3.03;;;;;;;12.43;100.00;101155.22;5064718;28;20020;-71
2022/10/25 04:34:58;;;;;;;10.15;2.50;;;;;;;12.41;100.00;101150.03;5064493;28;20060;-71
2022/10/25 04:37:24;;;;;;;11.38;2.67;;;;;;;12.39;100.00;101152.97;5055551;28;20082;-70
2022/10/25 04:39:49;;;;;;;12.05;3.15;;;;;;;12.40;100.00;101153.78;5062306;28;20604;-68
2022/10/25 04:42:14;;;;;;;10.95;2.90;;;;;;;12.39;100.00;101154.81;5067374;28;20024;-70
2022/10/25 04:44:40;;;;;;;15.10;2.88;;;;;;;12.35;100.00;101148.19;5071536;28;20463;-74
2022/10/25 04:47:05;;;;;;;11.85;3.13;;;;;;;12.34;100.00;101152.81;5070818;28;20039;-69
2022/10/25 04:49:30;;;;;;;10.43;3.10;;;;;;;12.35;100.00;101153.63;5073419;28;20452;-68
2022/10/25 04:51:56;;;;;;;11.23;2.92;;;;;;;12.34;100.00;101157.41;5067525;28;20049;-69
2022/10/25 04:54:22;;;;;;;11.07;3.10;;;;;;;12.32;100.00;101156.78;5055501;28;20090;-71
2022/10/25 04:56:47;;;;;;;8.43;2.63;;;;;;;12.32;100.00;101159.50;5057156;28;20558;-69
2022/10/25 04:59:12;;;;;;;10.90;3.00;;;;;;;12.30;100.00;101151.59;5066588;28;20025;-70
2022/10/25 05:01:37;;;;;;;12.43;3.08;;;;;;;12.30;100.00;101154.31;5051854;28;20032;-69
2022/10/25 05:04:03;;;;;;;7.03;2.70;;;;;;;12.29;100.00;101165.41;5073089;28;20054;-70
2022/10/25 05:06:28;;;;;;;11.27;3.28;;;;;;;12.29;100.00;101170.81;5075235;28;20043;-70
2022/10/25 05:08:54;;;;;;;9.80;2.78;;;;;;;12.29;100.00;101168.09;5075719;28;20020;-69
2022/10/25 05:11:21;;;;;;;10.00;2.75;;;;;;;12.27;100.00;101181.91;5073880;28;20082;-70
2022/10/25 05:13:47;;;;;;;10.50;2.92;;;;;;;12.25;100.00;101167.75;5058755;28;20110;-68
2022/10/25 05:16:16;;;;;;;10.68;3.15;;;;;;;12.26;100.00;101174.84;5055405;28;20427;-69
2022/10/25 05:18:44;;;;;;;14.05;2.95;;;;;;;12.26;100.00;101179.41;5055377;28;20360;-71
2022/10/25 05:21:10;;;;;;;13.27;3.10;;;;;;;12.23;100.00;101183.44;5062710;28;20037;-70
2022/10/25 05:23:35;;;;;;;10.55;3.20;;;;;;;12.27;100.00;101181.09;5054916;28;20025;-71
2022/10/25 05:26:21;;;;;;;10.90;2.78;;;;;;;12.19;100.00;101188.47;5055141;28;20021;-70
2022/10/25 05:28:50;;;;;;;13.50;3.10;;;;;;;12.18;100.00;101189.56;5054810;28;20033;-69
2022/10/25 05:31:19;;;;;;;11.82;2.92;;;;;;;12.23;100.00;101184.25;5062554;28;20757;-71
2022/10/25 05:33:45;;;;;;;12.32;2.80;;;;;;;12.18;100.00;101186.84;5073649;28;20367;-70
2022/10/25 05:36:11;;;;;;;10.18;2.83;;;;;;;12.18;100.00;101186.00;5074934;28;20058;-70
2022/10/25 05:38:37;;;;;;;15.48;3.40;;;;;;;12.17;100.00;101196.03;5068826;28;20044;-70
2022/10/25 05:41:02;;;;;;;10.27;2.80;;;;;;;12.16;100.00;101193.53;5065626;28;20367;-71
2022/10/25 05:43:28;;;;;;;12.18;3.38;;;;;;;12.16;100.00;101199.78;5054529;28;20036;-71
2022/10/25 05:46:04;;;;;;;13.45;3.10;;;;;;;12.17;100.00;101200.63;5052934;28;20021;-70
2022/10/25 05:48:30;;;;;;;8.15;2.90;;;;;;;12.12;100.00;101204.00;5054833;28;20037;-69
2022/10/25 05:51:10;;;;;;;10.63;3.22;;;;;;;12.13;100.00;101200.25;5054119;28;20074;-69
2022/10/25 05:53:36;;;;;;;11.82;3.10;;;;;;;12.10;100.00;101210.72;5053998;28;20360;-72
2022/10/25 05:56:01;;;;;;;15.15;3.78;;;;;;;12.13;100.00;101221.13;5053294;28;20020;-70
2022/10/25 05:58:26;;;;;;;11.75;3.60;;;;;;;12.09;100.00;101215.31;5054258;28;20025;-71
2022/10/25 06:00:52;;;;;;;14.18;3.70;;;;;;;12.12;100.00;101220.28;5050828;28;20045;-72
2022/10/25 06:03:17;;;;;;;13.88;3.80;;;;;;;12.10;100.00;101225.09;5072454;28;20031;-69
2022/10/25 06:05:42;;;;;;;14.60;4.05;;;;;;;12.10;100.00;101233.25;5072919;28;20028;-69
2022/10/25 06:08:07;;;;;;;12.32;3.80;;;;;;;12.08;100.00;101229.09;5074183;28;20035;-72
2022/10/25 06:10:33;;;;;;;11.77;3.67;;;;;;;12.10;100.00;101233.25;5072843;28;20360;-70
2022/10/25 06:12:58;;;;;;;11.93;3.97;;;;;;;12.13;100.00;101232.78;5074285;28;20044;-69
2022/10/25 06:15:23;;;;;;;10.52;4.03;;;;;;;12.12;100.00;101233.03;5072601;28;20020;-70
2022/10/25 06:17:49;;;;;;;11.38;4.43;;;;;;;12.14;100.00;101239.88;5073836;28;20020;-70
2022/10/25 06:20:14;;;;;;;11.85;4.10;;;;;;;12.18;100.00;101248.38;5074339;28;20024;-73
2022/10/25 06:22:39;;;;;;;9.55;4.25;;;;;;;12.17;100.00;101244.84;5067171;28;20467;-71
2022/10/25 06:25:05;;;;;;;16.13;5.05;;;;;;;12.16;100.00;101248.63;5058924;28;20498;-72
2022/10/25 06:27:30;;;;;;;13.65;4.97;;;;;;;12.17;100.00;101242.16;5053368;28;20025;-70
2022/10/25 06:29:56;;;;;;;17.13;4.80;;;;;;;12.18;100.00;101253.81;5052634;28;20032;-69
2022/10/25 06:32:21;;;;;;;12.05;5.15;;;;;;;12.17;100.00;101261.13;5053561;28;20464;-69
2022/10/25 06:34:46;;;;;;;21.20;6.18;;;;;;;12.16;100.00;101266.78;5052408;28;20021;-71
2022/10/25 06:37:11;;;;;;;17.73;5.28;;;;;;;12.19;100.00;101264.44;5053824;28;20353;-71
2022/10/25 06:39:37;;;;;;;19.35;6.57;;;;;;;12.20;100.00;101263.41;5053528;28;20513;-70
2022/10/25 06:42:02;;;;;;;16.85;5.70;;;;;;;12.18;100.00;101267.38;5052428;28;20025;-72
2022/10/25 06:44:27;;;;;;;13.50;5.30;;;;;;;12.18;100.00;101262.81;5053082;28;20104;-72
2022/10/25 06:46:53;;;;;;;14.70;5.38;;;;;;;12.19;100.00;101261.72;5053298;28;20055;-70
2022/10/25 06:49:18;;;;;;;16.00;5.68;;;;;;;12.19;100.00;101267.16;5055190;28;20052;-68
2022/10/25 06:51:43;;;;;;;14.65;5.45;;;;;;;12.18;100.00;101276.38;5071925;28;20021;-70
2022/10/25 06:54:08;;;;;;;17.65;6.13;;;;;;;12.19;100.00;101274.47;5073105;28;20028;-69
2022/10/25 06:56:34;;;;;;;18.58;5.95;;;;;;;12.19;100.00;101272.59;5072836;28;20026;-72
2022/10/25 06:59:01;;;;;;;17.88;5.97;;;;;;;12.16;100.00;101275.75;5073348;28;20107;-72
2022/10/25 07:01:26;;;;;;;16.38;6.25;;;;;;;12.16;100.00;101275.75;5069290;28;20032;-69
2022/10/25 07:03:53;;;;;;;13.23;5.50;;;;;;;12.17;100.00;101288.28;5072963;28;20036;-72
2022/10/25 07:06:23;;;;;;;13.93;6.05;;;;;;;12.19;100.00;101288.84;5072948;28;20467;-69
2022/10/25 07:08:55;;;;;;;13.50;5.90;;;;;;;12.18;100.00;101295.38;5067975;28;20063;-70
2022/10/25 07:11:21;;;;;;;16.05;6.22;;;;;;;12.19;100.00;101297.00;5051850;28;20021;-71
2022/10/25 07:13:47;;;;;;;12.75;6.10;;;;;;;12.19;100.00;101297.00;5052855;28;20021;-69
2022/10/25 07:16:14;;;;;;;14.90;5.80;;;;;;;12.22;100.00;101304.69;5052788;28;20055;-68
2022/10/25 07:18:40;;;;;;;20.88;6.50;;;;;;;12.26;100.00;101298.81;5052642;28;20024;-69
2022/10/25 07:21:14;;;;;;;16.10;5.55;;;;;;;12.28;100.00;101302.16;5052442;28;20044;-69
2022/10/25 07:23:41;;;;;;;13.65;5.80;;;;;;;12.32;100.00;101300.63;5052671;28;20380;-72
2022/10/25 07:26:08;;;;;;;14.52;5.95;;;;;;;12.37;100.00;101306.22;5052903;28;20071;-70
2022/10/25 07:28:34;;;;;;;18.73;6.35;;;;;;;12.37;100.00;101309.75;5051387;28;20025;-70
2022/10/25 07:30:59;;;;;;;11.98;5.60;;;;;;;12.41;100.00;101312.88;5051429;28;20368;-71
2022/10/25 07:33:24;;;;;;;18.17;5.63;;;;;;;12.45;100.00;101316.75;5051471;28;20024;-71
2022/10/25 07:35:50;;;;;;;17.65;5.97;;;;;;;12.47;100.00;101324.69;5051281;28;20025;-72
2022/10/25 07:38:15;;;;;;;12.40;5.97;;;;;;;12.48;100.00;101329.88;5051886;28;20526;-69
2022/10/25 07:40:41;;;;;;;15.02;5.63;;;;;;;12.50;100.00;101330.50;5052459;28;20021;-72
2022/10/25 07:43:07;;;;;;;15.73;5.65;;;;;;;12.53;100.00;101334.63;5052660;28;20025;-71
2022/10/25 07:45:33;;;;;;;16.80;6.32;;;;;;;12.56;100.00;101337.75;5052127;28;20460;-69
2022/10/25 07:47:59;;;;;;;14.75;5.88;;;;;;;12.55;100.00;101332.53;5051278;28;20075;-70
2022/10/25 07:50:24;;;;;;;13.75;5.60;;;;;;;12.57;100.00;101330.41;5052543;28;20040;-70
2022/10/25 07:52:49;;;;;;;14.52;5.90;;;;;;;12.57;100.00;101336.66;5052291;28;20025;-72
2022/10/25 07:55:15;;;;;;;15.82;6.18;;;;;;;12.62;100.00;101333.31;5051231;28;20363;-71
2022/10/25 07:57:40;;;;;;;18.38;6.47;;;;;;;12.65;100.00;101338.28;5050910;28;20508;-71
2022/10/25 08:00:08;;;;;;;12.45;5.60;;;;;;;12.63;100.00;101342.25;5051971;28;20364;-72
2022/10/25 08:02:33;;;;;;;15.57;6.00;;;;;;;12.67;100.00;101340.75;5052486;28;20028;-72
2022/10/25 08:04:59;;;;;;;15.43;6.10;;;;;;;12.68;100.00;101342.41;5052013;28;20079;-70
2022/10/25 08:07:24;;;;;;;16.30;6.30;;;;;;;12.70;100.00;101345.75;5052360;28;20027;-71
2022/10/25 08:09:50;;;;;;;16.38;6.38;;;;;;;12.73;100.00;101350.72;5050722;28;20021;-69
2022/10/25 08:12:15;;;;;;;19.15;6.05;;;;;;;12.75;100.00;101354.03;5052360;28;20028;-69
2022/10/25 08:14:40;;;;;;;13.70;6.53;;;;;;;12.79;100.00;101357.94;5052085;28;20078;-70
2022/10/25 08:17:06;;;;;;;15.40;6.03;;;;;;;12.75;100.00;101349.41;5052021;28;20111;-72
2022/10/25 08:19:31;;;;;;;15.05;5.97;;;;;;;12.76;100.00;101353.78;5052049;28;20025;-71
2022/10/25 08:21:56;;;;;;;15.55;5.93;;;;;;;12.77;100.00;101350.03;5052269;28;20041;-70
2022/10/25 08:24:21;;;;;;;18.27;5.95;;;;;;;12.82;100.00;101359.34;5054102;28;20078;-72
2022/10/25 08:26:47;;;;;;;15.40;6.07;;;;;;;12.84;100.00;101358.09;5056279;28;20032;-70
2022/10/25 08:29:13;;;;;;;15.57;5.93;;;;;;;12.86;100.00;101356.00;5056131;28;20049;-69
2022/10/25 08:31:38;;;;;;;11.63;5.25;;;;;;;12.92;100.00;101355.06;5070922;28;20029;-72
2022/10/25 08:34:03;;;;;;;16.00;5.57;;;;;;;12.94;100.00;101357.56;5054718;28;20379;-70
2022/10/25 08:36:28;;;;;;;14.93;5.18;;;;;;;12.99;100.00;101363.13;5056025;28;20025;-72
2022/10/25 08:38:54;;;;;;;13.50;5.57;;;;;;;13.03;100.00;101366.19;5054487;28;20333;-71
2022/10/25 08:41:39;;;;;;;18.10;6.55;;;;;;;13.04;100.00;101362.44;5055706;28;20028;-72
2022/10/25 08:44:23;;;;;;;11.23;5.72;;;;;;;13.08;100.00;101366.38;5055891;28;20021;-70
2022/10/25 08:46:51;;;;;;;14.05;5.22;;;;;;;13.12;100.00;101373.00;5066905;28;20387;-70
2022/10/25 08:49:26;;;;;;;18.02;4.97;;;;;;;13.18;100.00;101357.66;5075750;28;20028;-70
2022/10/25 08:51:53;;;;;;;15.60;5.10;;;;;;;13.27;100.00;101375.28;5057445;28;20025;-71
2022/10/25 08:54:26;;;;;;;15.70;5.28;;;;;;;13.28;100.00;101366.09;5055010;28;20074;-70
2022/10/25 08:57:04;;;;;;;12.02;4.55;;;;;;;13.26;100.00;101371.75;5055469;28;20045;-69
2022/10/25 08:59:34;;;;;;;9.98;4.45;;;;;;;13.28;100.00;101380.50;5055450;28;20025;-71
2022/10/25 09:01:59;;;;;;;13.10;4.20;;;;;;;13.30;100.00;101381.13;5053054;28;20112;-72
2022/10/25 09:04:25;;;;;;;16.38;4.82;;;;;;;13.34;100.00;101386.13;5054197;28;20108;-69
2022/10/25 09:07:00;;;;;;;13.55;4.65;;;;;;;13.34;100.00;101383.41;5055313;28;20051;-70
2022/10/25 09:10:13;;;;;;;14.13;5.45;;;;;;;13.38;100.00;101381.88;5055503;28;20024;-70
2022/10/25 09:12:49;;;;;;;14.57;4.90;;;;;;;13.39;100.00;101388.97;5055258;28;20033;-71
2022/10/25 09:15:42;;;;;;;16.48;4.85;;;;;;;13.45;100.00;101388.03;5055356;28;20017;-70
2022/10/25 09:18:15;;;;;;;12.25;4.82;;;;;;;13.53;100.00;101398.59;5055320;28;20574;-70
2022/10/25 09:20:51;;;;;;;16.48;4.80;;;;;;;13.56;100.00;101402.75;5066648;28;20048;-70
2022/10/25 09:23:25;;;;;;;14.73;4.65;;;;;;;13.57;100.00;101402.53;5075246;28;20036;-71
2022/10/25 09:26:03;;;;;;;11.38;3.97;;;;;;;13.58;100.00;101400.63;5075277;28;20028;-69
2022/10/25 09:28:31;;;;;;;13.15;4.18;;;;;;;13.65;100.00;101404.91;5073851;28;20355;-70
2022/10/25 09:31:00;;;;;;;13.27;4.15;;;;;;;13.71;100.00;101405.03;5074855;28;20025;-70
2022/10/25 09:33:29;;;;;;;14.88;4.38;;;;;;;13.73;100.00;101405.63;5075014;28;20024;-71
2022/10/25 09:35:58;;;;;;;12.35;3.65;;;;;;;13.76;100.00;101403.28;5073397;28;20359;-71
2022/10/25 09:38:25;;;;;;;12.98;3.55;;;;;;;13.77;100.00;101413.09;5073616;28;20048;-71
2022/10/25 09:41:00;;;;;;;15.00;4.15;;;;;;;13.79;100.00;101410.16;5070650;28;20073;-74
2022/10/25 09:43:39;;;;;;;13.43;3.92;;;;;;;13.80;100.00;101417.25;5054772;28;20033;-70
2022/10/25 09:46:17;;;;;;;12.73;3.75;;;;;;;13.79;100.00;101415.59;5053395;28;20485;-73
2022/10/25 09:48:55;;;;;;;9.32;3.50;;;;;;;13.81;100.00;101421.63;5054564;28;20033;-73
2022/10/25 09:51:29;;;;;;;14.35;3.80;;;;;;;13.83;100.00;101411.34;5058679;28;20032;-73
2022/10/25 09:53:56;;;;;;;13.77;3.50;;;;;;;13.83;100.00;101424.94;5068984;28;20192;-73
2022/10/25 09:56:21;;;;;;;12.98;3.17;;;;;;;13.84;100.00;101421.16;5088655;28;20368;-72
2022/10/25 09:58:46;;;;;;;9.05;3.30;;;;;;;13.89;100.00;101424.00;5054057;28;20025;-72
2022/10/25 10:01:28;;;;;;;15.60;3.35;;;;;;;13.88;100.00;101429.69;5050640;28;20358;-72
2022/10/25 10:04:15;;;;;;;13.32;3.45;;;;;;;13.91;100.00;101430.03;5054111;28;20033;-72
2022/10/25 10:06:41;;;;;;;10.80;3.00;;;;;;;13.89;100.00;101432.19;5054552;28;20021;-73
2022/10/25 10:09:11;;;;;;;10.65;3.42;;;;;;;13.91;100.00;101432.75;5052871;28;20025;-73
2022/10/25 10:11:37;;;;;;;10.85;3.10;;;;;;;13.90;100.00;101428.38;5053924;28;20061;-72
2022/10/25 10:14:15;;;;;;;15.95;3.53;;;;;;;13.93;100.00;101437.97;5070534;28;20035;-72
2022/10/25 10:16:48;;;;;;;17.02;4.15;;;;;;;13.94;100.00;101432.28;5073637;28;20020;-71
2022/10/25 10:19:19;;;;;;;13.55;3.00;;;;;;;13.97;100.00;101437.28;5074165;28;20020;-72
2022/10/25 10:21:47;;;;;;;;;;;;;;;14.03;100.00;101440.13;5073577;28;20074;-72
2022/10/25 10:24:37;;;;;;;11.13;3.25;;;;;;;13.95;100.00;101447.56;5054198;28;19936;-71
2022/10/25 10:27:28;;;;;;;10.20;3.15;;;;;;;13.94;100.00;101448.63;5066828;28;20036;-73
2022/10/25 10:29:59;;;;;;;10.95;2.92;;;;;;;13.94;100.00;101440.47;5053079;28;20112;-73
2022/10/25 10:32:28;;;;;;;12.90;3.60;;;;;;;13.96;100.00;101449.22;5064073;28;20443;-73
2022/10/25 10:34:56;;;;;;;13.77;3.20;;;;;;;13.95;100.00;101444.00;5072328;28;20123;-70
2022/10/25 10:37:22;;;;;;;11.48;3.38;;;;;;;13.94;100.00;101445.91;5073814;28;20035;-70
2022/10/25 10:40:01;;;;;;;11.20;3.50;;;;;;;13.97;100.00;101448.16;5069253;28;20188;-71
2022/10/25 10:42:31;;;;;;;12.05;2.92;;;;;;;13.99;100.00;101448.78;5053708;28;20083;-70
2022/10/25 10:45:16;;;;;;;12.73;3.38;;;;;;;14.02;100.00;101454.78;5053323;28;20021;-72
2022/10/25 10:47:47;;;;;;;11.02;3.25;;;;;;;14.03;100.00;101448.31;5053063;28;20060;-71
2022/10/25 10:52:56;;;;;;;9.70;3.25;;;;;;;14.15;100.00;101460.84;5053426;28;20033;-70
2022/10/25 10:55:46;;;;;;;7.70;2.72;;;;;;;14.23;100.00;101453.41;5052023;28;20138;-70
2022/10/25 10:58:26;;;;;;;9.45;2.75;;;;;;;14.31;100.00;101453.91;5057468;28;20463;-69
2022/10/25 11:00:56;;;;;;;10.10;3.13;;;;;;;14.35;100.00;101456.97;5069553;28;20031;-71
2022/10/25 11:03:57;;;;;;;13.32;2.70;;;;;;;14.43;100.00;101447.63;5073485;28;20363;-71
2022/10/25 11:06:25;;;;;;;9.07;3.03;;;;;;;14.45;100.00;101449.06;5061068;28;20526;-72
2022/10/25 11:09:11;;;;;;;7.90;2.72;;;;;;;14.43;100.00;101444.91;5072764;28;20020;-71
2022/10/25 11:11:37;;;;;;;10.05;3.08;;;;;;;14.45;100.00;101459.13;5073201;28;20056;-70
2022/10/25 11:14:13;;;;;;;11.40;3.03;;;;;;;14.48;100.00;101453.22;5072839;28;20036;-70
2022/10/25 11:17:02;;;;;;;10.40;2.67;;;;;;;14.48;100.00;101458.66;5073033;28;20448;-72
2022/10/25 11:20:03;;;;;;;7.57;3.05;;;;;;;14.57;100.00;101451.78;5073088;28;20021;-72
2022/10/25 11:22:46;;;;;;;13.30;3.00;;;;;;;14.62;100.00;101448.38;5060078;28;20036;-71
2022/10/25 11:25:22;;;;;;;13.88;3.40;;;;;;;14.65;100.00;101448.72;5071624;28;20278;-71